Time;durP1;ratioP1;P1;durP2;ratioP2;P2;SDS_P1;SDS_P2;PMS_P1;PMS_P2;Temp;Humidity;BMP_temperature;BMP_pressure;BME280_temperature;BME280_humidity;BME280_pressure;Samples;Min_cycle;Max_cycle;Signal;HPM_P1;HPM_P2
2021/01/18 00:01:32;;;;;;;14.60;10.40;;;22.30;31.20;;;;;;4995863;28;20061;-48
2021/01/18 00:03:58;;;;;;;14.65;10.50;;;22.30;31.20;;;;;;4996185;28;20042;-48
2021/01/18 00:06:24;;;;;;;14.02;10.85;;;22.20;31.20;;;;;;4996161;28;20036;-48
2021/01/18 00:08:50;;;;;;;13.80;10.02;;;22.20;31.20;;;;;;4995262;28;20026;-45
2021/01/18 00:11:17;;;;;;;12.30;9.77;;;22.20;31.20;;;;;;4994808;28;20444;-47
2021/01/18 00:13:44;;;;;;;14.05;9.30;;;22.20;31.20;;;;;;4994313;28;20026;-46
2021/01/18 00:16:21;;;;;;;12.63;9.63;;;22.20;31.20;;;;;;4994548;28;20033;-48
2021/01/18 00:18:47;;;;;;;13.02;9.18;;;22.20;31.10;;;;;;4994281;28;20350;-49
2021/01/18 00:21:14;;;;;;;12.40;9.15;;;22.20;31.10;;;;;;4993624;28;20023;-44
2021/01/18 00:23:41;;;;;;;14.75;10.07;;;22.20;31.10;;;;;;4994702;28;20034;-45
2021/01/18 00:26:07;;;;;;;14.07;9.23;;;22.20;31.10;;;;;;4994242;28;20049;-46
2021/01/18 00:28:34;;;;;;;13.23;9.18;;;22.10;31.10;;;;;;4995441;28;20358;-45
2021/01/18 00:31:04;;;;;;;12.60;8.88;;;22.10;31.10;;;;;;4995738;28;20034;-45
2021/01/18 00:33:34;;;;;;;11.48;8.32;;;22.10;31.10;;;;;;4994560;28;20046;-46
2021/01/18 00:36:00;;;;;;;12.15;8.00;;;22.10;31.10;;;;;;4995146;28;20038;-47
2021/01/18 00:38:26;;;;;;;11.80;8.30;;;22.10;31.00;;;;;;4994535;28;20125;-45
2021/01/18 00:40:52;;;;;;;10.50;8.05;;;22.10;31.00;;;;;;4995405;28;20101;-48
2021/01/18 00:43:18;;;;;;;10.35;7.70;;;22.10;31.00;;;;;;4994593;28;20041;-47
2021/01/18 00:45:44;;;;;;;11.88;7.88;;;22.10;31.00;;;;;;4994965;28;20030;-47
2021/01/18 00:48:10;;;;;;;11.75;8.07;;;22.00;30.90;;;;;;4994173;28;20022;-47
2021/01/18 00:50:36;;;;;;;11.77;8.05;;;22.00;30.90;;;;;;4976994;28;20113;-48
2021/01/18 00:53:02;;;;;;;10.25;7.43;;;22.00;30.90;;;;;;4975944;28;20402;-47
2021/01/18 00:55:31;;;;;;;11.18;7.22;;;22.00;30.90;;;;;;4977198;28;20076;-45
2021/01/18 00:58:20;;;;;;;10.00;6.95;;;22.00;30.90;;;;;;4957044;28;20046;-48
2021/01/18 01:01:05;;;;;;;10.95;6.50;;;22.00;30.90;;;;;;4976254;28;20117;-44
2021/01/18 01:03:33;;;;;;;8.90;6.63;;;22.00;30.90;;;;;;4976934;28;20022;-46
2021/01/18 01:05:58;;;;;;;8.43;6.55;;;22.00;30.90;;;;;;4994506;28;20458;-48
2021/01/18 01:08:24;;;;;;;11.00;7.20;;;22.00;30.90;;;;;;4994509;28;20026;-48
2021/01/18 01:10:50;;;;;;;9.77;6.88;;;22.00;30.90;;;;;;4995026;28;20034;-47
2021/01/18 01:13:16;;;;;;;8.70;6.07;;;22.00;30.90;;;;;;4992557;28;20037;-50
2021/01/18 01:15:41;;;;;;;9.35;5.85;;;22.00;30.90;;;;;;4994293;28;20118;-46
2021/01/18 01:18:07;;;;;;;8.20;5.90;;;22.00;30.90;;;;;;4993890;28;20599;-48
2021/01/18 01:20:33;;;;;;;10.48;6.35;;;22.00;30.90;;;;;;4993822;28;20038;-45
2021/01/18 01:22:59;;;;;;;9.93;6.22;;;22.00;30.90;;;;;;4994312;28;20033;-47
2021/01/18 01:25:26;;;;;;;8.90;6.32;;;21.90;30.90;;;;;;4994429;28;20051;-49
2021/01/18 01:27:53;;;;;;;9.52;6.55;;;21.90;30.90;;;;;;4993216;28;20034;-46
2021/01/18 01:30:24;;;;;;;8.93;5.85;;;21.90;30.90;;;;;;4976978;28;20045;-45
2021/01/18 01:32:52;;;;;;;9.52;5.85;;;21.90;30.90;;;;;;4993828;28;20034;-47
2021/01/18 01:35:21;;;;;;;9.13;5.70;;;21.90;30.90;;;;;;4994147;28;20066;-47
2021/01/18 01:37:47;;;;;;;8.88;5.85;;;21.90;30.90;;;;;;4992128;28;20049;-46
2021/01/18 01:40:15;;;;;;;8.00;5.38;;;21.90;30.90;;;;;;4992497;28;20038;-49
2021/01/18 01:42:41;;;;;;;8.45;5.55;;;21.80;30.80;;;;;;4994681;28;20081;-50
2021/01/18 01:45:09;;;;;;;8.68;5.45;;;21.90;30.90;;;;;;4995336;28;20081;-51
2021/01/18 01:47:39;;;;;;;7.50;5.20;;;21.90;30.90;;;;;;4974746;28;20476;-51
2021/01/18 01:50:10;;;;;;;7.10;5.35;;;21.90;30.90;;;;;;4994879;28;20026;-49
2021/01/18 01:52:40;;;;;;;7.88;5.53;;;21.90;30.90;;;;;;4992219;28;20125;-51
2021/01/18 01:55:12;;;;;;;10.45;5.85;;;21.80;30.90;;;;;;4994612;28;20030;-54
2021/01/18 01:57:39;;;;;;;7.88;5.45;;;21.80;30.90;;;;;;4991840;28;20057;-47
2021/01/18 02:00:06;;;;;;;9.73;5.50;;;21.80;30.80;;;;;;4993760;28;20027;-50
2021/01/18 02:02:32;;;;;;;7.90;5.00;;;21.80;30.90;;;;;;4993505;28;20078;-50
2021/01/18 02:04:58;;;;;;;5.85;4.82;;;21.80;30.90;;;;;;4993698;28;20361;-47
2021/01/18 02:07:28;;;;;;;7.50;4.57;;;21.80;30.90;;;;;;4990738;28;20110;-48
2021/01/18 02:09:55;;;;;;;8.38;4.78;;;21.80;30.80;;;;;;4993568;28;20056;-46
2021/01/18 02:12:21;;;;;;;7.13;4.55;;;21.80;30.80;;;;;;4993008;28;20061;-50
2021/01/18 02:15:09;;;;;;;6.75;4.50;;;21.70;30.80;;;;;;4993552;28;20057;-46
2021/01/18 02:18:08;;;;;;;6.72;4.45;;;21.70;30.70;;;;;;4991605;28;20361;-44
2021/01/18 02:21:11;;;;;;;8.45;4.68;;;21.70;30.70;;;;;;4989249;28;20038;-53
2021/01/18 02:23:42;;;;;;;6.93;4.35;;;21.70;30.70;;;;;;4992887;28;20030;-46
2021/01/18 02:26:18;;;;;;;6.28;4.10;;;21.70;30.70;;;;;;4992256;28;20539;-49
2021/01/18 02:29:11;;;;;;;6.85;4.15;;;21.70;30.80;;;;;;4993260;28;20026;-50
2021/01/18 02:32:00;;;;;;;5.82;3.92;;;21.70;30.80;;;;;;4993120;28;20034;-46
2021/01/18 02:34:53;;;;;;;4.72;3.80;;;21.70;30.80;;;;;;4991735;28;20026;-49
2021/01/18 02:37:47;;;;;;;5.47;3.58;;;21.70;30.80;;;;;;4992545;28;20100;-48
2021/01/18 02:40:25;;;;;;;5.15;3.67;;;21.70;30.80;;;;;;4991734;28;20097;-48
2021/01/18 02:42:53;;;;;;;5.80;3.58;;;21.70;30.80;;;;;;4991099;28;20038;-46
2021/01/18 02:45:21;;;;;;;6.10;3.55;;;21.70;30.80;;;;;;4992850;28;20062;-44
2021/01/18 02:47:49;;;;;;;5.22;3.45;;;21.60;30.70;;;;;;4993499;28;20097;-47
2021/01/18 02:50:15;;;;;;;6.00;3.40;;;21.60;30.70;;;;;;4992533;28;20054;-48
2021/01/18 02:52:42;;;;;;;5.00;3.50;;;21.60;30.70;;;;;;4993145;28;20104;-45
2021/01/18 02:55:09;;;;;;;5.47;3.50;;;21.60;30.70;;;;;;4992714;28;20069;-48
2021/01/18 02:57:43;;;;;;;6.18;4.00;;;21.60;30.70;;;;;;4992769;28;20508;-46
2021/01/18 03:00:15;;;;;;;6.10;3.50;;;21.60;30.70;;;;;;4990656;28;20046;-46
2021/01/18 03:02:59;;;;;;;4.78;3.05;;;21.60;30.70;;;;;;4976094;28;20117;-46
2021/01/18 03:05:36;;;;;;;6.03;3.50;;;21.60;30.70;;;;;;4991426;28;20034;-46
2021/01/18 03:08:12;;;;;;;5.18;3.58;;;21.60;30.70;;;;;;4989377;28;20062;-44
2021/01/18 03:10:47;;;;;;;8.02;3.15;;;21.60;30.70;;;;;;4992390;28;20038;-49
2021/01/18 03:13:26;;;;;;;4.93;3.60;;;21.60;30.70;;;;;;4991387;28;20125;-47
2021/01/18 03:15:57;;;;;;;5.40;3.30;;;21.60;30.80;;;;;;4992888;28;20022;-47
2021/01/18 03:18:24;;;;;;;5.85;3.63;;;21.50;30.70;;;;;;4996790;28;20133;-47
2021/01/18 03:20:50;;;;;;;5.80;3.30;;;21.60;30.80;;;;;;4996574;28;20040;-44
2021/01/18 03:23:16;;;;;;;4.57;3.10;;;21.50;30.70;;;;;;4996366;28;20026;-47
2021/01/18 03:25:56;;;;;;;4.85;3.70;;;21.50;31.00;;;;;;4994664;28;20034;-46
2021/01/18 03:28:24;;;;;;;5.10;3.17;;;21.50;31.30;;;;;;4995487;28;20036;-48
2021/01/18 03:30:51;;;;;;;4.68;3.08;;;21.50;30.70;;;;;;4995267;28;21546;-45
2021/01/18 03:33:17;;;;;;;5.30;3.25;;;21.50;30.70;;;;;;4993423;28;20069;-47
2021/01/18 03:35:43;;;;;;;4.93;3.10;;;21.50;30.70;;;;;;4996174;28;20117;-46
2021/01/18 03:38:09;;;;;;;4.80;2.80;;;21.50;30.70;;;;;;4995499;28;20429;-45
2021/01/18 03:40:36;;;;;;;4.07;2.80;;;21.50;30.70;;;;;;4995954;28;20397;-46
2021/01/18 03:43:07;;;;;;;4.78;3.00;;;21.50;30.70;;;;;;4992516;28;20454;-47
2021/01/18 03:45:38;;;;;;;4.80;3.05;;;21.50;30.70;;;;;;4996071;28;20034;-46
2021/01/18 03:48:05;;;;;;;5.50;2.88;;;21.50;30.70;;;;;;4993403;28;20733;-46
2021/01/18 03:50:31;;;;;;;5.00;2.83;;;21.50;30.70;;;;;;4995926;28;20112;-46
2021/01/18 03:52:57;;;;;;;5.72;3.00;;;21.40;30.70;;;;;;4995910;28;20042;-45
2021/01/18 03:55:23;;;;;;;4.55;2.80;;;21.50;30.70;;;;;;4996377;28;20041;-49
2021/01/18 03:57:51;;;;;;;8.98;2.50;;;21.40;30.70;;;;;;4994920;28;20066;-51
2021/01/18 04:00:20;;;;;;;4.10;2.38;;;21.40;30.70;;;;;;4993989;28;20038;-46
2021/01/18 04:02:46;;;;;;;4.50;2.35;;;21.40;30.70;;;;;;4993703;28;20035;-45
2021/01/18 04:05:13;;;;;;;4.90;2.55;;;21.40;30.70;;;;;;4995301;28;20526;-45
2021/01/18 04:07:41;;;;;;;4.35;2.20;;;21.40;30.70;;;;;;4993857;28;20088;-47
2021/01/18 04:10:07;;;;;;;3.72;2.28;;;21.40;30.60;;;;;;4995918;28;20022;-50
2021/01/18 04:12:33;;;;;;;4.57;2.38;;;21.40;30.60;;;;;;4995118;28;20401;-46
2021/01/18 04:14:59;;;;;;;4.05;2.20;;;21.40;30.70;;;;;;4995639;28;20030;-47
2021/01/18 04:17:25;;;;;;;4.70;2.50;;;21.40;30.60;;;;;;4977594;28;20057;-48
2021/01/18 04:19:50;;;;;;;5.28;2.05;;;21.40;30.60;;;;;;4995996;28;20030;-46
2021/01/18 04:22:16;;;;;;;4.18;2.35;;;21.40;30.70;;;;;;4994823;28;20445;-48
2021/01/18 04:24:42;;;;;;;3.42;2.10;;;21.40;30.60;;;;;;4995181;28;20046;-47
2021/01/18 04:27:08;;;;;;;3.55;1.88;;;21.30;30.60;;;;;;4994063;28;20409;-45
2021/01/18 04:29:35;;;;;;;3.88;2.17;;;21.40;30.70;;;;;;4992960;28;20438;-45
2021/01/18 04:32:00;;;;;;;3.50;2.25;;;21.40;30.70;;;;;;4994884;28;20037;-46
2021/01/18 04:34:26;;;;;;;4.55;2.33;;;21.30;31.20;;;;;;4995282;28;20037;-47
2021/01/18 04:36:52;;;;;;;5.40;2.15;;;21.30;30.60;;;;;;4976096;28;20458;-48
2021/01/18 04:39:18;;;;;;;6.35;2.58;;;21.30;30.60;;;;;;4994036;28;20026;-48
2021/01/18 04:41:45;;;;;;;3.78;1.92;;;21.30;30.60;;;;;;4995169;28;20081;-45
2021/01/18 04:44:16;;;;;;;3.60;2.08;;;21.30;30.60;;;;;;4993896;28;20030;-48
2021/01/18 04:46:45;;;;;;;3.03;1.88;;;21.30;30.60;;;;;;4991382;28;20357;-48
2021/01/18 04:49:12;;;;;;;3.17;2.08;;;21.30;30.60;;;;;;4995214;28;20027;-47
2021/01/18 04:51:48;;;;;;;3.95;1.95;;;21.30;30.60;;;;;;4994330;28;20045;-46
2021/01/18 04:54:16;;;;;;;4.97;1.85;;;21.30;30.60;;;;;;4993541;28;20104;-47
2021/01/18 04:57:07;;;;;;;4.15;2.15;;;21.30;30.60;;;;;;4994799;28;20026;-47
2021/01/18 04:59:41;;;;;;;4.00;1.90;;;21.30;30.60;;;;;;4994611;28;20042;-46
2021/01/18 05:02:12;;;;;;;5.15;2.30;;;21.20;30.60;;;;;;4993866;28;20089;-46
2021/01/18 05:04:43;;;;;;;3.33;1.63;;;21.20;30.60;;;;;;4993200;28;20037;-47
2021/01/18 05:07:34;;;;;;;4.07;2.10;;;21.20;30.60;;;;;;4995197;28;20442;-47
2021/01/18 05:10:08;;;;;;;4.63;2.10;;;21.20;30.70;;;;;;4987251;28;20042;-48
2021/01/18 05:12:36;;;;;;;3.55;1.80;;;21.20;30.70;;;;;;4994376;28;20768;-46
2021/01/18 05:15:06;;;;;;;5.28;2.30;;;21.20;30.70;;;;;;4994291;28;20038;-46
2021/01/18 05:17:44;;;;;;;2.95;1.75;;;21.20;30.70;;;;;;4993792;28;20054;-45
2021/01/18 05:20:12;;;;;;;2.67;1.65;;;21.20;30.70;;;;;;4991997;28;20045;-46
2021/01/18 05:22:50;;;;;;;3.03;1.88;;;21.20;30.70;;;;;;4994383;28;20105;-46
2021/01/18 05:25:17;;;;;;;3.00;1.75;;;21.20;30.70;;;;;;4992488;28;20378;-48
2021/01/18 05:28:03;;;;;;;3.17;1.90;;;21.20;30.80;;;;;;4994160;28;21568;-49
2021/01/18 05:30:34;;;;;;;4.32;1.70;;;21.20;30.80;;;;;;4993214;28;20459;-47
2021/01/18 05:33:01;;;;;;;3.58;1.48;;;21.10;30.70;;;;;;4993824;28;20030;-49
2021/01/18 05:35:27;;;;;;;3.42;2.08;;;21.20;30.80;;;;;;4994064;28;20042;-52
2021/01/18 05:38:01;;;;;;;4.70;2.00;;;21.10;30.80;;;;;;4993391;28;20054;-46
2021/01/18 05:40:27;;;;;;;2.83;1.60;;;21.10;30.80;;;;;;4993511;28;20038;-47
2021/01/18 05:42:59;;;;;;;2.67;1.60;;;21.10;30.80;;;;;;4993790;28;20461;-47
2021/01/18 05:45:30;;;;;;;3.63;1.70;;;21.10;30.90;;;;;;4992581;28;20133;-50
2021/01/18 05:47:56;;;;;;;3.42;1.70;;;21.10;30.90;;;;;;4993683;28;20054;-50
2021/01/18 05:50:27;;;;;;;3.92;1.92;;;21.10;30.90;;;;;;4993512;28;20026;-46
2021/01/18 05:52:53;;;;;;;3.90;1.88;;;21.10;30.90;;;;;;4993854;28;20030;-47
2021/01/18 05:55:26;;;;;;;3.75;2.08;;;21.10;30.90;;;;;;4993377;28;20022;-46
2021/01/18 05:58:02;;;;;;;2.55;1.73;;;21.10;30.90;;;;;;4991378;28;20034;-48
2021/01/18 06:00:30;;;;;;;3.58;1.80;;;21.10;30.90;;;;;;4976514;28;20041;-49
2021/01/18 06:02:57;;;;;;;3.72;2.13;;;21.00;30.90;;;;;;4992921;28;20169;-46
2021/01/18 06:05:29;;;;;;;3.15;1.70;;;21.10;31.00;;;;;;4993409;28;20034;-46
2021/01/18 06:08:16;;;;;;;2.85;1.60;;;21.00;30.90;;;;;;4992208;28;20042;-48
2021/01/18 06:10:44;;;;;;;3.63;1.67;;;21.00;31.00;;;;;;4992085;28;20058;-46
2021/01/18 06:13:25;;;;;;;2.67;1.40;;;21.00;31.00;;;;;;4992942;28;20033;-45
2021/01/18 06:16:11;;;;;;;2.67;1.60;;;21.00;31.00;;;;;;4992953;28;20125;-49
2021/01/18 06:18:41;;;;;;;2.70;1.55;;;21.00;31.00;;;;;;4992936;28;20038;-46
2021/01/18 06:21:09;;;;;;;2.85;1.60;;;21.00;31.10;;;;;;4993090;28;20058;-45
2021/01/18 06:23:35;;;;;;;5.00;1.90;;;21.00;31.10;;;;;;4975347;28;20018;-53
2021/01/18 06:26:02;;;;;;;3.70;1.77;;;21.00;31.10;;;;;;4990088;28;20386;-46
2021/01/18 06:28:32;;;;;;;3.55;2.00;;;21.00;31.10;;;;;;4991394;28;20034;-49
2021/01/18 06:31:03;;;;;;;3.47;1.70;;;21.00;31.20;;;;;;4993201;28;20030;-50
2021/01/18 06:33:48;;;;;;;3.67;1.95;;;21.00;31.20;;;;;;4993315;28;20109;-47
2021/01/18 06:36:26;;;;;;;3.88;1.92;;;21.00;31.20;;;;;;4973341;28;20038;-49
2021/01/18 06:38:58;;;;;;;2.83;1.50;;;21.00;31.20;;;;;;4992463;28;20405;-47
2021/01/18 06:41:30;;;;;;;2.50;1.30;;;21.00;31.20;;;;;;4993191;28;20027;-46
2021/01/18 06:43:57;;;;;;;3.70;1.70;;;21.00;31.30;;;;;;4992797;28;20113;-47
2021/01/18 06:46:32;;;;;;;3.17;1.50;;;20.90;31.20;;;;;;4993618;28;20135;-47
2021/01/18 06:48:58;;;;;;;3.25;1.70;;;21.00;31.30;;;;;;4992461;28;20445;-48
2021/01/18 06:51:26;;;;;;;3.40;1.77;;;21.00;31.30;;;;;;4991796;28;20064;-47
2021/01/18 06:53:54;;;;;;;4.63;1.90;;;20.90;31.20;;;;;;4992658;28;20030;-46
2021/01/18 06:56:23;;;;;;;4.03;1.90;;;20.90;31.20;;;;;;4992792;28;20026;-49
2021/01/18 06:58:52;;;;;;;4.13;1.70;;;20.90;31.20;;;;;;4992863;28;20120;-45
2021/01/18 07:01:35;;;;;;;5.10;1.98;;;20.90;31.20;;;;;;4993022;28;20109;-47
2021/01/18 07:04:09;;;;;;;5.28;2.00;;;20.90;31.30;;;;;;4991924;28;20045;-44
2021/01/18 07:06:35;;;;;;;3.92;1.60;;;20.90;31.30;;;;;;4992849;28;20381;-49
2021/01/18 07:09:04;;;;;;;4.50;1.60;;;20.90;31.30;;;;;;4992911;28;20110;-48
2021/01/18 07:11:30;;;;;;;4.55;2.10;;;20.90;31.30;;;;;;4992255;28;20030;-48
2021/01/18 07:13:56;;;;;;;4.05;1.80;;;20.90;31.30;;;;;;4991968;28;20027;-48
2021/01/18 07:16:24;;;;;;;2.83;1.52;;;20.90;31.30;;;;;;4993362;28;20101;-49
2021/01/18 07:18:56;;;;;;;3.47;1.63;;;20.90;31.40;;;;;;4991964;28;20177;-44
2021/01/18 07:21:26;;;;;;;2.80;1.48;;;20.90;31.40;;;;;;4990596;28;20023;-46
2021/01/18 07:23:57;;;;;;;3.78;1.55;;;20.90;31.40;;;;;;4990920;28;20031;-45
2021/01/18 07:26:51;;;;;;;3.17;1.50;;;20.80;31.30;;;;;;4991504;28;20133;-46
2021/01/18 07:29:24;;;;;;;3.05;1.42;;;20.80;31.30;;;;;;4991969;28;20027;-46
2021/01/18 07:31:55;;;;;;;3.73;1.37;;;20.90;31.40;;;;;;4991620;28;20027;-50
2021/01/18 07:34:26;;;;;;;3.33;1.70;;;20.80;31.40;;;;;;4973313;28;20038;-45
2021/01/18 07:36:53;;;;;;;4.82;1.65;;;20.80;31.40;;;;;;4992558;28;20027;-52
2021/01/18 07:39:25;;;;;;;4.25;1.50;;;20.80;31.40;;;;;;4992150;28;20044;-51
2021/01/18 07:41:51;;;;;;;3.85;1.50;;;20.80;31.40;;;;;;4990545;28;20113;-46
2021/01/18 07:44:46;;;;;;;4.65;1.83;;;20.80;31.40;;;;;;4992511;28;20113;-46
2021/01/18 07:47:15;;;;;;;5.60;1.70;;;20.80;31.50;;;;;;4992101;28;20030;-47
2021/01/18 07:49:48;;;;;;;4.47;2.15;;;20.80;31.50;;;;;;4990159;28;20472;-46
2021/01/18 07:52:28;;;;;;;4.22;1.60;;;20.80;31.50;;;;;;4991717;28;20034;-51
2021/01/18 07:54:55;;;;;;;6.47;2.17;;;20.80;31.50;;;;;;4990529;28;20042;-49
2021/01/18 07:57:28;;;;;;;4.60;1.77;;;20.80;31.50;;;;;;4992177;28;20038;-48
2021/01/18 08:00:23;;;;;;;5.88;2.03;;;20.80;31.50;;;;;;4992114;28;20049;-49
2021/01/18 08:02:54;;;;;;;7.53;2.58;;;20.80;31.50;;;;;;4991021;28;20049;-55
2021/01/18 08:05:31;;;;;;;8.73;2.92;;;20.80;31.70;;;;;;4995688;28;20035;-58
2021/01/18 08:08:04;;;;;;;9.45;3.10;;;20.80;32.40;;;;;;4994187;28;20037;-60
2021/01/18 08:10:49;;;;;;;9.27;3.58;;;20.80;32.80;;;;;;4995166;28;20034;-59
2021/01/18 08:13:34;;;;;;;;;;;20.90;32.90;;;;;;4994064;28;20030;-56
2021/01/18 08:16:29;;;;;;;8.73;3.60;;;20.90;32.90;;;;;;4990947;28;19910;-54
2021/01/18 08:18:56;;;;;;;9.25;4.78;;;21.00;33.10;;;;;;4989977;28;20045;-53
2021/01/18 08:21:35;;;;;;;10.68;5.35;;;21.00;33.00;;;;;;4992100;28;20045;-53
2021/01/18 08:24:03;;;;;;;12.15;5.93;;;21.20;33.00;;;;;;4994744;28;20342;-52
2021/01/18 08:26:54;;;;;;;11.73;6.28;;;21.20;32.80;;;;;;4994411;28;20046;-48
2021/01/18 08:29:49;;;;;;;11.68;7.22;;;21.30;32.70;;;;;;4994712;28;20085;-53
2021/01/18 08:32:24;;;;;;;10.32;6.30;;;21.40;32.70;;;;;;4994565;28;20023;-52
2021/01/18 08:34:56;;;;;;;14.40;7.90;;;21.50;32.50;;;;;;4996815;28;20034;-49
2021/01/18 08:37:25;;;;;;;14.02;8.15;;;21.60;32.50;;;;;;4994510;28;20129;-57
2021/01/18 08:39:52;;;;;;;15.60;8.63;;;21.70;32.50;;;;;;4992672;28;20080;-52
2021/01/18 08:42:32;;;;;;;14.98;9.65;;;21.80;32.60;;;;;;4993532;28;20026;-54
2021/01/18 08:45:01;;;;;;;15.15;9.25;;;21.90;32.50;;;;;;4975828;28;20438;-55
2021/01/18 08:47:41;;;;;;;14.40;9.85;;;22.00;32.40;;;;;;4995604;28;20096;-56
2021/01/18 08:50:24;;;;;;;14.07;9.85;;;22.10;32.30;;;;;;4994706;28;20095;-50
2021/01/18 08:52:55;;;;;;;14.75;10.10;;;22.20;32.20;;;;;;4990574;28;20062;-56
2021/01/18 08:55:31;;;;;;;17.10;11.57;;;22.30;32.20;;;;;;4992773;28;20026;-53
2021/01/18 08:58:07;;;;;;;18.25;11.77;;;22.40;32.10;;;;;;4993313;28;20030;-54
2021/01/18 09:00:47;;;;;;;16.30;10.82;;;22.40;32.00;;;;;;4994474;28;20038;-53
2021/01/18 09:03:18;;;;;;;18.77;11.73;;;22.50;31.90;;;;;;4993807;28;20599;-51
2021/01/18 09:05:48;;;;;;;17.85;12.15;;;22.60;31.80;;;;;;4994197;28;20038;-52
2021/01/18 09:08:17;;;;;;;17.33;12.13;;;22.70;31.80;;;;;;4992339;28;20048;-54
2021/01/18 09:11:00;;;;;;;17.23;12.80;;;22.80;31.60;;;;;;4993698;28;20113;-54
2021/01/18 09:13:28;;;;;;;17.48;12.88;;;22.90;31.50;;;;;;4993011;28;20036;-58
2021/01/18 09:15:57;;;;;;;18.20;13.95;;;23.00;31.50;;;;;;4994573;28;20031;-57
2021/01/18 09:18:25;;;;;;;22.20;14.95;;;23.10;31.50;;;;;;4994701;28;20046;-54
2021/01/18 09:20:57;;;;;;;18.40;13.27;;;23.20;31.20;;;;;;4971855;28;20356;-53
2021/01/18 09:23:27;;;;;;;18.00;12.20;;;23.30;31.10;;;;;;4990215;28;20049;-54
2021/01/18 09:26:02;;;;;;;16.63;12.27;;;23.30;30.90;;;;;;4994136;28;20069;-50
2021/01/18 09:28:31;;;;;;;16.25;11.82;;;23.50;30.70;;;;;;4992432;28;20022;-54
2021/01/18 09:31:07;;;;;;;17.85;13.27;;;23.50;30.60;;;;;;4994782;28;20553;-55
2021/01/18 09:33:34;;;;;;;17.27;13.18;;;23.60;30.50;;;;;;4992274;28;20361;-50
2021/01/18 09:36:01;;;;;;;16.17;12.32;;;23.60;30.40;;;;;;4994247;28;20018;-52
2021/01/18 09:38:27;;;;;;;19.83;13.82;;;23.70;30.40;;;;;;4991629;28;20046;-55
2021/01/18 09:40:53;;;;;;;17.85;13.52;;;23.80;30.30;;;;;;4974975;28;20058;-52
2021/01/18 09:43:22;;;;;;;20.88;14.63;;;23.80;30.20;;;;;;4994645;28;20032;-48
2021/01/18 09:45:55;;;;;;;18.08;14.30;;;23.90;30.20;;;;;;4992453;28;20030;-53
2021/01/18 09:48:24;;;;;;;19.70;15.05;;;23.90;30.20;;;;;;4989949;28;20445;-49
2021/01/18 09:51:11;;;;;;;18.77;15.13;;;24.00;30.20;;;;;;4991285;28;20105;-48
2021/01/18 09:53:39;;;;;;;18.63;15.82;;;24.00;30.20;;;;;;4992008;28;20591;-51
2021/01/18 09:56:12;;;;;;;23.15;16.35;;;24.00;30.10;;;;;;4991649;28;20080;-52
2021/01/18 09:58:44;;;;;;;21.40;17.10;;;24.10;30.10;;;;;;4989797;28;20456;-52
2021/01/18 10:01:18;;;;;;;20.85;16.67;;;24.10;30.00;;;;;;4990196;28;20508;-49
2021/01/18 10:04:07;;;;;;;22.80;19.15;;;24.10;30.00;;;;;;4992903;28;20477;-53
2021/01/18 10:06:35;;;;;;;25.58;20.17;;;24.20;30.60;;;;;;4991007;28;20026;-54
2021/01/18 10:09:05;;;;;;;23.02;19.42;;;24.20;30.00;;;;;;4991508;28;20046;-50
2021/01/18 10:11:44;;;;;;;24.45;20.83;;;24.20;30.00;;;;;;4992060;28;20439;-52
2021/01/18 10:14:24;;;;;;;27.95;21.83;;;24.30;30.10;;;;;;4991366;28;20461;-49
2021/01/18 10:17:03;;;;;;;27.38;21.58;;;24.30;30.10;;;;;;4991549;28;20185;-53
2021/01/18 10:19:36;;;;;;;27.67;20.83;;;24.40;30.80;;;;;;4988815;28;20045;-51
2021/01/18 10:22:06;;;;;;;29.15;21.75;;;24.30;30.00;;;;;;4972740;28;20058;-49
2021/01/18 10:24:33;;;;;;;34.25;22.33;;;24.40;30.10;;;;;;4991907;28;20115;-45
2021/01/18 10:27:12;;;;;;;31.05;20.77;;;24.40;30.00;;;;;;4991358;28;20057;-51
2021/01/18 10:29:42;;;;;;;29.08;22.13;;;24.40;30.10;;;;;;4989796;28;20046;-50
2021/01/18 10:32:11;;;;;;;39.75;22.85;;;24.30;30.10;;;;;;4990647;28;20465;-52
2021/01/18 10:34:38;;;;;;;29.33;21.52;;;24.30;30.20;;;;;;4988999;28;20022;-54
2021/01/18 10:37:17;;;;;;;28.58;19.80;;;24.30;30.30;;;;;;4992929;28;20111;-53
2021/01/18 10:39:45;;;;;;;29.63;20.55;;;24.30;30.30;;;;;;4988183;28;20327;-47
2021/01/18 10:42:17;;;;;;;31.83;21.27;;;24.30;30.30;;;;;;4991068;28;20041;-55
2021/01/18 10:44:57;;;;;;;29.55;22.38;;;24.20;30.30;;;;;;4992131;28;20034;-52
2021/01/18 10:47:28;;;;;;;30.98;22.77;;;24.20;30.50;;;;;;4991181;28;20342;-55
2021/01/18 10:50:00;;;;;;;26.35;21.23;;;24.20;30.40;;;;;;4986088;28;20061;-55
2021/01/18 10:52:41;;;;;;;34.17;22.75;;;24.20;30.30;;;;;;4987406;28;20058;-59
2021/01/18 10:55:12;;;;;;;25.60;21.25;;;24.20;30.40;;;;;;4989548;28;20038;-59
2021/01/18 10:57:42;;;;;;;27.23;21.00;;;24.30;30.40;;;;;;4991923;28;20045;-58
2021/01/18 11:00:10;;;;;;;27.63;21.48;;;24.30;30.20;;;;;;4988964;28;20037;-57
2021/01/18 11:02:41;;;;;;;30.95;22.70;;;24.30;30.20;;;;;;4993055;28;20069;-62
2021/01/18 11:05:09;;;;;;;37.92;21.98;;;24.40;30.20;;;;;;4991196;28;20026;-48
2021/01/18 11:07:38;;;;;;;31.55;20.40;;;24.40;30.20;;;;;;4991567;28;20300;-57
2021/01/18 11:10:06;;;;;;;27.90;18.73;;;24.40;30.20;;;;;;4989273;28;20061;-57
2021/01/18 11:12:41;;;;;;;25.30;19.60;;;24.40;30.20;;;;;;4990459;28;20030;-50
2021/01/18 11:15:13;;;;;;;28.80;20.83;;;24.30;30.20;;;;;;4993331;28;20026;-54
2021/01/18 11:17:40;;;;;;;24.70;20.27;;;24.30;30.20;;;;;;4989055;28;20452;-51
2021/01/18 11:20:08;;;;;;;24.88;21.35;;;24.30;30.30;;;;;;4990084;28;20034;-50
2021/01/18 11:22:35;;;;;;;25.85;19.98;;;24.30;30.30;;;;;;4991691;28;20027;-52
2021/01/18 11:25:03;;;;;;;24.25;19.95;;;24.30;30.30;;;;;;4992962;28;20104;-49
2021/01/18 11:27:29;;;;;;;27.00;20.75;;;24.30;30.30;;;;;;4992051;28;20750;-52
2021/01/18 11:29:56;;;;;;;25.67;20.15;;;24.30;30.80;;;;;;4993182;28;20048;-47
2021/01/18 11:32:22;;;;;;;25.38;21.27;;;24.30;30.10;;;;;;4992294;28;20446;-56
2021/01/18 11:34:48;;;;;;;27.15;21.30;;;24.30;30.10;;;;;;4993254;28;20038;-51
2021/01/18 11:37:15;;;;;;;27.80;21.52;;;24.30;30.00;;;;;;4996447;28;20116;-50
2021/01/18 11:39:44;;;;;;;29.38;23.65;;;24.30;30.00;;;;;;4995172;28;20389;-51
2021/01/18 11:42:11;;;;;;;30.75;22.58;;;24.30;30.00;;;;;;4998304;28;20041;-49
2021/01/18 11:44:37;;;;;;;26.85;22.27;;;24.30;30.00;;;;;;4997403;28;20038;-53
2021/01/18 11:47:03;;;;;;;25.25;21.75;;;24.20;30.00;;;;;;4993908;28;20046;-54
2021/01/18 11:49:29;;;;;;;24.38;21.00;;;24.30;30.00;;;;;;4998397;28;20031;-52
2021/01/18 11:51:57;;;;;;;27.15;21.67;;;24.30;30.00;;;;;;4978326;28;20030;-48
2021/01/18 11:54:25;;;;;;;27.23;23.08;;;24.30;30.00;;;;;;4995638;28;20045;-51
2021/01/18 11:56:52;;;;;;;26.80;21.45;;;24.30;30.00;;;;;;4985162;28;20418;-48
2021/01/18 11:59:18;;;;;;;27.42;22.90;;;24.20;30.00;;;;;;4989327;28;20050;-53
2021/01/18 12:01:47;;;;;;;24.73;20.67;;;24.20;30.00;;;;;;4989748;28;20512;-47
2021/01/18 12:04:13;;;;;;;24.85;20.25;;;24.20;30.00;;;;;;4988135;28;20046;-50
2021/01/18 12:06:40;;;;;;;26.33;21.88;;;24.20;30.00;;;;;;4982909;28;20026;-52
2021/01/18 12:09:08;;;;;;;25.98;21.02;;;24.20;30.00;;;;;;4991303;28;20034;-53
2021/01/18 12:11:38;;;;;;;26.10;22.20;;;24.20;30.00;;;;;;4992097;28;20033;-52
2021/01/18 12:14:06;;;;;;;27.20;24.10;;;24.20;30.00;;;;;;4996459;28;20030;-50
2021/01/18 12:16:32;;;;;;;28.00;24.45;;;24.20;30.00;;;;;;4993342;28;20050;-43
2021/01/18 12:18:58;;;;;;;31.75;25.52;;;24.20;30.10;;;;;;4991255;28;20041;-42
2021/01/18 12:21:25;;;;;;;32.10;27.13;;;24.20;30.10;;;;;;4995254;28;20341;-44
2021/01/18 12:23:51;;;;;;;32.60;27.60;;;24.20;30.20;;;;;;4993833;28;20392;-48
2021/01/18 12:26:18;;;;;;;33.75;26.70;;;24.20;30.20;;;;;;4995277;28;20046;-45
2021/01/18 12:28:45;;;;;;;34.45;29.15;;;24.10;30.20;;;;;;4995608;28;20042;-45
2021/01/18 12:31:11;;;;;;;36.15;29.70;;;24.10;30.30;;;;;;4994948;28;20100;-44
2021/01/18 12:33:37;;;;;;;30.88;26.40;;;24.10;30.40;;;;;;4995561;28;20026;-48
2021/01/18 12:36:03;;;;;;;28.65;24.40;;;24.00;30.40;;;;;;4985925;28;20439;-47
2021/01/18 12:38:29;;;;;;;31.63;27.27;;;24.00;30.30;;;;;;4993147;28;20089;-47
2021/01/18 12:40:55;;;;;;;35.88;28.60;;;24.00;30.30;;;;;;4983211;28;20442;-64
2021/01/18 12:43:21;;;;;;;34.67;30.15;;;24.00;30.40;;;;;;4981919;28;20109;-50
2021/01/18 12:45:47;;;;;;;37.53;32.00;;;24.00;30.50;;;;;;4980963;28;20037;-49
2021/01/18 12:48:14;;;;;;;34.88;31.13;;;23.90;30.60;;;;;;4987624;28;20039;-51
2021/01/18 12:50:40;;;;;;;37.00;31.48;;;23.90;30.70;;;;;;4990772;28;20353;-48
2021/01/18 12:53:10;;;;;;;39.22;32.80;;;23.90;30.70;;;;;;4989516;28;20034;-50
2021/01/18 12:55:36;;;;;;;39.90;34.50;;;23.80;30.70;;;;;;4978385;28;20027;-49
2021/01/18 12:58:03;;;;;;;40.22;34.05;;;23.90;30.80;;;;;;4991532;28;20410;-52